Time;durP1;ratioP1;P1;durP2;ratioP2;P2;SDS_P1;SDS_P2;PMS_P1;PMS_P2;Temp;Humidity;BMP_temperature;BMP_pressure;BME280_temperature;BME280_humidity;BME280_pressure;Samples;Min_cycle;Max_cycle;Signal;HPM_P1;HPM_P2
2023/06/22 00:00:48;;;;;;;20.23;15.55;;;17.60;99.90;;;;;;5011712;28;20214;-86
2023/06/22 00:03:15;;;;;;;18.92;16.15;;;17.60;99.90;;;;;;4991832;28;21108;-86
2023/06/22 00:05:42;;;;;;;17.20;15.43;;;;;;;;;;5015576;28;20202;-88
2023/06/22 00:08:09;;;;;;;20.67;16.77;;;17.60;99.90;;;;;;5011734;28;20202;-84
2023/06/22 00:10:36;;;;;;;19.75;16.40;;;17.70;99.90;;;;;;5018326;28;20207;-87
2023/06/22 00:13:02;;;;;;;24.02;19.90;;;17.70;99.90;;;;;;5002564;28;20210;-87
2023/06/22 00:15:29;;;;;;;22.23;18.13;;;17.80;99.90;;;;;;5012454;28;20232;-85
2023/06/22 00:17:58;;;;;;;25.25;19.88;;;17.80;99.90;;;;;;4987273;28;20677;-86
2023/06/22 00:20:27;;;;;;;24.13;18.27;;;17.90;99.90;;;;;;5013423;28;20249;-87
2023/06/22 00:22:54;;;;;;;16.60;14.80;;;17.90;99.90;;;;;;5012583;28;20200;-87
2023/06/22 00:25:21;;;;;;;17.00;13.55;;;17.90;99.90;;;;;;5015525;28;20194;-88
2023/06/22 00:27:48;;;;;;;15.10;13.50;;;;;;;;;;5006189;28;20679;-87
2023/06/22 00:30:16;;;;;;;12.45;11.13;;;17.80;99.90;;;;;;5010652;28;20202;-87
2023/06/22 00:32:44;;;;;;;13.25;9.32;;;17.60;99.90;;;;;;5005268;28;20202;-88
2023/06/22 00:35:13;;;;;;;11.15;9.55;;;17.60;99.90;;;;;;4997045;28;20752;-87
2023/06/22 00:37:42;;;;;;;10.98;9.65;;;17.50;99.90;;;;;;5009830;28;20237;-87
2023/06/22 00:40:10;;;;;;;10.95;9.77;;;17.30;99.90;;;;;;5015938;28;20206;-86
2023/06/22 00:42:37;;;;;;;12.65;9.65;;;17.30;99.90;;;;;;5019762;28;20246;-84
2023/06/22 00:45:05;;;;;;;11.10;9.90;;;17.30;99.90;;;;;;5011820;28;20210;-86
2023/06/22 00:47:33;;;;;;;11.70;10.43;;;17.40;99.90;;;;;;5018001;28;20202;-85
2023/06/22 00:50:00;;;;;;;13.93;12.07;;;17.30;99.90;;;;;;4994982;28;20923;-84
2023/06/22 00:52:30;;;;;;;14.82;12.10;;;17.20;99.90;;;;;;5022101;28;20193;-86
2023/06/22 00:54:57;;;;;;;15.90;13.35;;;17.20;99.90;;;;;;5016854;28;20205;-88
2023/06/22 00:57:27;;;;;;;16.52;14.68;;;17.10;99.90;;;;;;5013654;28;20887;-86
2023/06/22 00:59:55;;;;;;;15.20;13.60;;;17.10;99.90;;;;;;5010151;28;20214;-85
2023/06/22 01:02:22;;;;;;;16.50;14.52;;;17.00;99.90;;;;;;5012569;28;20214;-86
2023/06/22 01:04:48;;;;;;;22.63;15.85;;;17.10;99.90;;;;;;4992337;28;20214;-88
2023/06/22 01:07:28;;;;;;;19.70;17.05;;;17.10;99.90;;;;;;5013686;28;20844;-87
2023/06/22 01:10:03;;;;;;;21.38;17.27;;;17.10;99.90;;;;;;5013880;28;20304;-87
2023/06/22 01:12:37;;;;;;;21.30;17.40;;;17.10;99.90;;;;;;5014618;28;20628;-86
2023/06/22 01:15:10;;;;;;;20.20;17.40;;;17.10;99.90;;;;;;5005834;28;20217;-88
2023/06/22 01:17:37;;;;;;;21.00;16.92;;;17.20;99.90;;;;;;5017449;28;20249;-86
2023/06/22 01:20:06;;;;;;;19.55;16.50;;;17.20;99.90;;;;;;4995541;28;20206;-86
2023/06/22 01:22:41;;;;;;;20.38;16.45;;;17.20;99.90;;;;;;5013987;28;20431;-87
2023/06/22 01:25:14;;;;;;;19.73;16.15;;;17.20;99.90;;;;;;5015843;28;20213;-88
2023/06/22 01:27:54;;;;;;;20.45;15.77;;;17.30;99.90;;;;;;5016486;28;20811;-87
2023/06/22 01:30:23;;;;;;;18.45;15.88;;;17.30;99.90;;;;;;5006113;28;20203;-87
2023/06/22 01:32:51;;;;;;;19.77;15.70;;;17.30;99.90;;;;;;5017046;28;20206;-87
2023/06/22 01:35:19;;;;;;;22.15;15.90;;;17.30;99.90;;;;;;4993111;28;20197;-84
2023/06/22 01:37:46;;;;;;;18.58;15.30;;;17.30;99.90;;;;;;5018457;28;20316;-85
2023/06/22 01:40:14;;;;;;;17.00;14.68;;;17.30;99.90;;;;;;5017192;28;20695;-86
2023/06/22 01:42:42;;;;;;;19.67;15.27;;;17.30;99.90;;;;;;5015148;28;20203;-86
2023/06/22 01:45:11;;;;;;;17.60;14.70;;;17.20;99.90;;;;;;5010184;28;20203;-86
2023/06/22 01:47:40;;;;;;;17.95;14.45;;;;;;;;;;5015639;28;20307;-85
2023/06/22 01:50:08;;;;;;;16.63;14.07;;;17.20;99.90;;;;;;5012942;28;20203;-86
2023/06/22 01:52:35;;;;;;;17.38;13.43;;;17.10;99.90;;;;;;4996714;28;20667;-84
2023/06/22 01:55:02;;;;;;;19.48;12.85;;;17.10;99.90;;;;;;5017717;28;20202;-86
2023/06/22 01:57:29;;;;;;;15.05;13.18;;;17.10;99.90;;;;;;5021308;28;21070;-86
2023/06/22 02:00:02;;;;;;;17.63;13.25;;;17.10;99.90;;;;;;5021194;28;20214;-85
2023/06/22 02:02:36;;;;;;;17.67;13.32;;;17.10;99.90;;;;;;5003581;28;20223;-86
2023/06/22 02:05:08;;;;;;;19.80;13.93;;;16.90;99.90;;;;;;5026923;28;20202;-85
2023/06/22 02:07:42;;;;;;;16.70;12.50;;;17.00;99.90;;;;;;5001904;28;20206;-86
2023/06/22 02:10:12;;;;;;;13.13;11.70;;;16.90;99.90;;;;;;5017591;28;20215;-86
2023/06/22 02:12:40;;;;;;;15.40;13.73;;;16.80;99.90;;;;;;5020516;28;20598;-86
2023/06/22 02:15:09;;;;;;;14.50;12.68;;;16.60;99.90;;;;;;5016307;28;20563;-86
2023/06/22 02:17:37;;;;;;;15.90;13.77;;;16.60;99.90;;;;;;5014000;28;20316;-86
2023/06/22 02:20:08;;;;;;;16.27;12.70;;;16.50;99.90;;;;;;5018543;28;20763;-87
2023/06/22 02:22:35;;;;;;;16.50;12.43;;;16.70;99.90;;;;;;4997142;28;20672;-87
2023/06/22 02:25:02;;;;;;;16.52;11.52;;;16.70;99.90;;;;;;5016464;28;20201;-87
2023/06/22 02:27:28;;;;;;;12.95;11.55;;;16.60;99.90;;;;;;5013691;28;20226;-86
2023/06/22 02:29:55;;;;;;;12.90;10.48;;;16.60;99.90;;;;;;5019787;28;20667;-86
2023/06/22 02:32:22;;;;;;;13.00;10.13;;;16.60;99.90;;;;;;5008598;28;20202;-87
2023/06/22 02:34:49;;;;;;;12.88;10.57;;;16.50;99.90;;;;;;5016744;28;20212;-86
2023/06/22 02:37:18;;;;;;;14.68;10.75;;;16.40;99.90;;;;;;5014816;28;20723;-86
2023/06/22 02:39:44;;;;;;;13.65;10.52;;;16.20;99.90;;;;;;4995477;28;20218;-87
2023/06/22 02:42:11;;;;;;;15.48;11.35;;;16.30;99.90;;;;;;5011860;28;20203;-87
2023/06/22 02:44:38;;;;;;;13.55;10.77;;;16.40;99.90;;;;;;5016995;28;20778;-86
2023/06/22 02:47:06;;;;;;;14.18;11.73;;;16.30;99.90;;;;;;5014100;28;20232;-87
2023/06/22 02:49:32;;;;;;;15.10;12.05;;;16.40;99.90;;;;;;5001493;28;20212;-86
2023/06/22 02:51:59;;;;;;;12.23;10.77;;;16.40;99.90;;;;;;5012150;28;20712;-86
2023/06/22 02:54:27;;;;;;;15.32;11.75;;;16.60;99.90;;;;;;4995874;28;20213;-86
2023/06/22 02:56:55;;;;;;;16.08;11.88;;;;;;;;;;5014017;28;20234;-86
2023/06/22 02:59:23;;;;;;;14.65;12.13;;;16.30;99.90;;;;;;5012994;28;20222;-87
2023/06/22 03:01:50;;;;;;;20.50;13.45;;;16.40;99.90;;;;;;5013936;28;20346;-85
2023/06/22 03:04:17;;;;;;;14.65;13.15;;;16.40;99.90;;;;;;5002833;28;20213;-86
2023/06/22 03:06:44;;;;;;;17.27;13.77;;;16.40;99.90;;;;;;5015584;28;20480;-86
2023/06/22 03:09:11;;;;;;;20.33;15.75;;;16.40;99.90;;;;;;4996271;28;20212;-87
2023/06/22 03:11:39;;;;;;;17.80;15.65;;;16.40;99.90;;;;;;5013648;28;20206;-86
2023/06/22 03:14:06;;;;;;;19.73;15.70;;;16.40;99.90;;;;;;5003342;28;20706;-87
2023/06/22 03:16:32;;;;;;;21.90;17.23;;;16.50;99.90;;;;;;5014226;28;20527;-87
2023/06/22 03:18:59;;;;;;;19.38;15.30;;;16.50;99.90;;;;;;5001361;28;20288;-85
2023/06/22 03:21:29;;;;;;;19.88;16.00;;;16.50;99.90;;;;;;5006320;28;20442;-86
2023/06/22 03:23:56;;;;;;;20.83;15.52;;;16.40;99.90;;;;;;5008836;28;20222;-87
2023/06/22 03:26:26;;;;;;;20.80;14.77;;;16.40;99.90;;;;;;4996936;28;20748;-86
2023/06/22 03:28:54;;;;;;;16.20;13.98;;;16.30;99.90;;;;;;5015476;28;20198;-87
2023/06/22 03:31:21;;;;;;;16.42;13.25;;;16.20;99.90;;;;;;5008687;28;20211;-87
2023/06/22 03:33:49;;;;;;;16.17;12.57;;;16.20;99.90;;;;;;5000242;28;20217;-86
2023/06/22 03:36:18;;;;;;;15.02;11.40;;;16.10;99.90;;;;;;4996748;28;20238;-88
2023/06/22 03:38:45;;;;;;;17.15;14.57;;;16.20;99.90;;;;;;5013778;28;20313;-87
2023/06/22 03:41:12;;;;;;;13.73;12.15;;;16.30;99.90;;;;;;4987023;28;21144;-87
2023/06/22 03:43:39;;;;;;;14.18;11.60;;;16.30;99.90;;;;;;5013425;28;20903;-87
2023/06/22 03:46:07;;;;;;;15.88;12.32;;;16.40;99.90;;;;;;5011660;28;20229;-86
2023/06/22 03:48:34;;;;;;;15.63;11.93;;;16.50;99.90;;;;;;5013588;28;20201;-86
2023/06/22 03:51:02;;;;;;;17.83;13.68;;;16.30;99.90;;;;;;5002278;28;20198;-87
2023/06/22 03:53:29;;;;;;;23.35;17.00;;;16.30;99.90;;;;;;5008727;28;20202;-87
2023/06/22 03:55:56;;;;;;;20.85;16.40;;;16.30;99.90;;;;;;4992676;28;20217;-86
2023/06/22 03:58:23;;;;;;;19.60;16.52;;;16.20;99.90;;;;;;5013735;28;20237;-87
2023/06/22 04:00:52;;;;;;;17.08;14.68;;;16.20;99.90;;;;;;5007697;28;20213;-87
2023/06/22 04:03:20;;;;;;;18.23;16.00;;;16.10;99.90;;;;;;5004889;28;20199;-86
2023/06/22 04:05:47;;;;;;;19.85;15.43;;;16.00;99.90;;;;;;5008397;28;20210;-86
2023/06/22 04:08:15;;;;;;;21.98;16.25;;;16.00;99.90;;;;;;5011064;28;20537;-86
2023/06/22 04:10:42;;;;;;;18.40;15.68;;;16.00;99.90;;;;;;4992175;28;20234;-86
2023/06/22 04:13:09;;;;;;;20.23;16.63;;;16.10;99.90;;;;;;5018601;28;20202;-87
2023/06/22 04:15:36;;;;;;;25.15;17.45;;;16.00;99.90;;;;;;5017741;28;20206;-87
2023/06/22 04:18:03;;;;;;;21.30;16.55;;;16.00;99.90;;;;;;5018348;28;20218;-86
2023/06/22 04:20:32;;;;;;;18.67;15.95;;;16.10;99.90;;;;;;5019887;28;20221;-87
2023/06/22 04:22:59;;;;;;;20.85;18.15;;;16.10;99.90;;;;;;5006956;28;20202;-87
2023/06/22 04:25:26;;;;;;;26.08;18.88;;;16.30;99.90;;;;;;5014114;28;20202;-87
2023/06/22 04:27:52;;;;;;;26.98;18.55;;;16.40;99.90;;;;;;4995119;28;20209;-86
2023/06/22 04:30:19;;;;;;;24.27;18.25;;;14.70;99.90;;;;;;5012147;28;20204;-86
2023/06/22 04:32:56;;;;;;;25.73;18.95;;;16.80;99.90;;;;;;4998521;28;20209;-89
2023/06/22 04:35:23;;;;;;;21.58;15.50;;;16.60;99.90;;;;;;5017768;28;20222;-84
2023/06/22 04:37:54;;;;;;;21.33;15.70;;;16.70;99.90;;;;;;4989400;28;20233;-83
2023/06/22 04:40:22;;;;;;;19.98;15.52;;;16.70;99.90;;;;;;5012767;28;20281;-85
2023/06/22 04:42:52;;;;;;;21.45;15.85;;;16.80;99.90;;;;;;4981630;28;20211;-86
2023/06/22 04:45:19;;;;;;;17.88;14.98;;;16.80;99.90;;;;;;5010814;28;20781;-85
2023/06/22 04:47:46;;;;;;;21.75;15.65;;;16.80;99.90;;;;;;5017279;28;20665;-84
2023/06/22 04:50:13;;;;;;;21.77;15.25;;;16.80;99.90;;;;;;5012006;28;20202;-86
2023/06/22 04:52:40;;;;;;;16.08;12.88;;;16.90;99.90;;;;;;4997163;28;20206;-84
2023/06/22 04:55:09;;;;;;;19.20;13.95;;;16.80;99.90;;;;;;5012095;28;20206;-85
2023/06/22 04:57:39;;;;;;;18.15;14.30;;;16.90;99.90;;;;;;4997734;28;20705;-86
2023/06/22 05:00:12;;;;;;;16.13;13.70;;;17.00;99.90;;;;;;5012643;28;20222;-85
2023/06/22 05:02:39;;;;;;;17.70;13.85;;;17.00;99.90;;;;;;5020373;28;20209;-86
2023/06/22 05:05:07;;;;;;;16.70;13.13;;;17.00;99.90;;;;;;5014041;28;20222;-85
2023/06/22 05:07:34;;;;;;;16.50;13.88;;;17.00;99.90;;;;;;5005387;28;20456;-85
2023/06/22 05:10:01;;;;;;;19.20;15.70;;;17.10;99.90;;;;;;5012941;28;20199;-84
2023/06/22 05:12:31;;;;;;;18.25;14.52;;;17.40;99.90;;;;;;4991065;28;20245;-86
2023/06/22 05:14:58;;;;;;;18.20;14.55;;;17.30;99.90;;;;;;5009105;28;20206;-88
2023/06/22 05:17:25;;;;;;;19.42;15.15;;;17.30;99.90;;;;;;5016348;28;20225;-87
2023/06/22 05:19:52;;;;;;;21.58;13.73;;;17.50;99.90;;;;;;5022959;28;20237;-87
2023/06/22 05:22:20;;;;;;;17.05;14.13;;;17.60;99.90;;;;;;5014507;28;20205;-85
2023/06/22 05:24:47;;;;;;;20.25;15.63;;;17.60;99.90;;;;;;5012580;28;20202;-86
2023/06/22 05:27:14;;;;;;;16.90;14.32;;;17.80;99.90;;;;;;5015295;28;20321;-85
2023/06/22 05:29:43;;;;;;;16.80;14.05;;;17.80;99.90;;;;;;4998381;28;20211;-87
2023/06/22 05:32:10;;;;;;;20.95;14.55;;;17.70;99.90;;;;;;5005825;28;20210;-87
2023/06/22 05:34:36;;;;;;;22.55;15.63;;;17.60;99.90;;;;;;5011576;28;20766;-86
2023/06/22 05:37:05;;;;;;;21.65;15.25;;;17.70;99.90;;;;;;5021617;28;20234;-86
2023/06/22 05:39:32;;;;;;;21.33;14.85;;;17.60;99.90;;;;;;5007276;28;20410;-87
2023/06/22 05:41:59;;;;;;;20.15;15.43;;;17.70;99.90;;;;;;5021172;28;20202;-85
2023/06/22 05:44:25;;;;;;;18.42;15.32;;;17.70;99.90;;;;;;4993483;28;21068;-86
2023/06/22 05:46:53;;;;;;;20.55;15.57;;;17.60;99.90;;;;;;5007130;28;20206;-86
2023/06/22 05:49:21;;;;;;;19.83;15.63;;;17.70;99.90;;;;;;5016086;28;20201;-87
2023/06/22 05:51:48;;;;;;;21.50;17.20;;;17.70;99.90;;;;;;5015518;28;20199;-86
2023/06/22 05:54:17;;;;;;;24.92;17.80;;;17.80;99.90;;;;;;5004678;28;20219;-86
2023/06/22 05:56:44;;;;;;;23.88;18.40;;;17.90;99.90;;;;;;5017229;28;20217;-85
2023/06/22 05:59:12;;;;;;;25.42;18.45;;;18.00;99.90;;;;;;5001657;28;20230;-85
2023/06/22 06:01:40;;;;;;;21.52;17.30;;;18.00;99.90;;;;;;5004384;28;20206;-87
2023/06/22 06:04:09;;;;;;;23.10;17.08;;;18.20;99.90;;;;;;5014129;28;20198;-86
2023/06/22 06:06:36;;;;;;;19.58;15.98;;;18.20;99.90;;;;;;5014765;28;20194;-87
2023/06/22 06:09:04;;;;;;;19.70;16.65;;;18.50;99.90;;;;;;5018074;28;20384;-86
2023/06/22 06:11:31;;;;;;;20.20;16.33;;;18.40;99.90;;;;;;5007924;28;20198;-86
2023/06/22 06:13:58;;;;;;;21.02;16.80;;;18.60;99.90;;;;;;5019239;28;20212;-85
2023/06/22 06:16:25;;;;;;;22.90;16.45;;;18.60;99.90;;;;;;4991088;28;20631;-84
2023/06/22 06:18:53;;;;;;;20.42;15.05;;;18.70;99.90;;;;;;5016879;28;20715;-87
2023/06/22 06:21:21;;;;;;;18.23;15.27;;;18.70;99.90;;;;;;5016107;28;20859;-85
2023/06/22 06:23:48;;;;;;;17.88;15.98;;;18.80;99.90;;;;;;5018252;28;20563;-86
2023/06/22 06:26:16;;;;;;;19.90;14.38;;;18.80;99.90;;;;;;5003499;28;20573;-86
2023/06/22 06:28:43;;;;;;;16.83;13.40;;;18.90;99.90;;;;;;5005786;28;20213;-85
2023/06/22 06:31:12;;;;;;;18.77;13.15;;;18.90;99.90;;;;;;4989098;28;20225;-86
2023/06/22 06:33:38;;;;;;;15.35;12.13;;;19.00;99.90;;;;;;5015911;28;20221;-86
2023/06/22 06:36:08;;;;;;;16.05;11.45;;;19.10;99.90;;;;;;5017463;28;20209;-87
2023/06/22 06:38:36;;;;;;;15.25;11.93;;;19.20;99.90;;;;;;5016222;28;20217;-84
2023/06/22 06:41:03;;;;;;;15.00;11.38;;;19.20;99.90;;;;;;5013278;28;20217;-85
2023/06/22 06:43:30;;;;;;;12.52;9.55;;;19.30;99.90;;;;;;5009898;28;20210;-86
2023/06/22 06:45:56;;;;;;;14.85;11.45;;;19.40;99.90;;;;;;4986704;28;21342;-86
2023/06/22 06:48:23;;;;;;;11.63;9.57;;;19.30;99.90;;;;;;5013985;28;20199;-86
2023/06/22 06:50:50;;;;;;;12.02;9.18;;;19.40;99.90;;;;;;5010021;28;20636;-85
2023/06/22 06:53:17;;;;;;;14.75;10.35;;;19.50;99.90;;;;;;5003523;28;20721;-87
2023/06/22 06:55:45;;;;;;;13.20;10.20;;;19.60;99.90;;;;;;5015230;28;20208;-87
2023/06/22 06:58:13;;;;;;;13.32;10.25;;;19.60;99.90;;;;;;5003149;28;20786;-86
2023/06/22 07:00:40;;;;;;;11.23;8.68;;;19.50;99.90;;;;;;5014255;28;20202;-85
2023/06/22 07:03:07;;;;;;;13.27;9.38;;;19.80;99.90;;;;;;4993437;28;20690;-86
2023/06/22 07:05:35;;;;;;;15.70;8.77;;;19.80;99.90;;;;;;5012861;28;20198;-87
2023/06/22 07:08:02;;;;;;;10.15;8.57;;;19.90;99.90;;;;;;5013198;28;20245;-87
2023/06/22 07:10:29;;;;;;;11.93;9.77;;;19.90;99.90;;;;;;5018311;28;20206;-85
2023/06/22 07:12:57;;;;;;;10.40;8.65;;;19.90;99.90;;;;;;5003648;28;20245;-85
2023/06/22 07:15:25;;;;;;;12.45;8.95;;;20.20;99.90;;;;;;5015105;28;20213;-87
2023/06/22 07:17:51;;;;;;;13.43;10.02;;;20.00;99.90;;;;;;4996882;28;20217;-86
2023/06/22 07:20:19;;;;;;;11.07;8.77;;;20.10;99.90;;;;;;5006369;28;20287;-86
2023/06/22 07:22:46;;;;;;;10.27;8.10;;;20.10;99.90;;;;;;5014385;28;20293;-86
2023/06/22 07:25:15;;;;;;;7.72;6.72;;;20.20;99.90;;;;;;5013868;28;20204;-87
2023/06/22 07:27:47;;;;;;;12.88;7.80;;;20.20;99.90;;;;;;5014666;28;20211;-85
2023/06/22 07:30:16;;;;;;;7.90;6.80;;;19.90;99.90;;;;;;5003392;28;20207;-86
2023/06/22 07:32:42;;;;;;;11.35;7.43;;;20.20;99.90;;;;;;5010501;28;20202;-86
2023/06/22 07:35:10;;;;;;;9.73;6.93;;;20.30;99.90;;;;;;4980877;28;20217;-86
2023/06/22 07:37:37;;;;;;;9.02;6.85;;;20.30;99.90;;;;;;5015228;28;20257;-86
2023/06/22 07:40:06;;;;;;;9.65;7.30;;;20.40;99.90;;;;;;5016256;28;20218;-85
2023/06/22 07:42:33;;;;;;;11.02;7.80;;;20.40;99.90;;;;;;5014978;28;20202;-87
2023/06/22 07:45:01;;;;;;;13.38;7.15;;;20.50;99.90;;;;;;5006731;28;20206;-84
2023/06/22 07:47:29;;;;;;;12.95;6.78;;;20.50;99.90;;;;;;5012613;28;20939;-85
2023/06/22 07:50:00;;;;;;;9.82;7.32;;;20.50;99.90;;;;;;4985050;28;20206;-84
2023/06/22 07:52:27;;;;;;;9.90;7.10;;;20.60;99.90;;;;;;5019604;28;20787;-86
2023/06/22 07:54:54;;;;;;;9.02;6.10;;;20.60;99.90;;;;;;5015932;28;20202;-86
2023/06/22 07:57:21;;;;;;;9.18;6.38;;;20.60;99.90;;;;;;5015389;28;20206;-86
2023/06/22 07:59:48;;;;;;;8.38;6.70;;;20.70;99.90;;;;;;5004023;28;20541;-85
2023/06/22 08:02:15;;;;;;;8.95;6.07;;;20.80;99.90;;;;;;5010713;28;20202;-85
2023/06/22 08:04:44;;;;;;;12.95;6.90;;;20.80;99.90;;;;;;4983564;28;21497;-84
2023/06/22 08:07:11;;;;;;;9.00;5.57;;;20.90;99.90;;;;;;5013332;28;20252;-86
2023/06/22 08:09:38;;;;;;;9.65;5.60;;;20.90;99.90;;;;;;5001592;28;20649;-87
2023/06/22 08:12:06;;;;;;;8.40;5.53;;;20.90;99.90;;;;;;5017350;28;20669;-84
2023/06/22 08:14:36;;;;;;;10.18;5.88;;;20.90;99.90;;;;;;5012842;28;20240;-86
2023/06/22 08:17:02;;;;;;;8.32;5.18;;;21.00;99.90;;;;;;5004975;28;20211;-85
2023/06/22 08:19:29;;;;;;;5.78;4.55;;;21.00;99.90;;;;;;4998322;28;20222;-84
2023/06/22 08:21:58;;;;;;;5.60;4.38;;;21.00;99.90;;;;;;5011675;28;20205;-86
2023/06/22 08:24:24;;;;;;;10.93;4.90;;;21.00;99.90;;;;;;5010415;28;20221;-84
2023/06/22 08:26:52;;;;;;;7.25;5.15;;;21.00;99.90;;;;;;5014601;28;20213;-85
2023/06/22 08:29:19;;;;;;;5.43;4.38;;;21.10;99.90;;;;;;5011840;28;20232;-85
2023/06/22 08:31:46;;;;;;;7.15;5.30;;;21.10;99.90;;;;;;5005815;28;20313;-86
2023/06/22 08:34:13;;;;;;;6.07;4.30;;;21.20;99.90;;;;;;5008987;28;20201;-85
2023/06/22 08:36:44;;;;;;;5.90;4.72;;;21.20;99.90;;;;;;4993951;28;20616;-87
2023/06/22 08:39:12;;;;;;;8.52;4.70;;;21.20;99.90;;;;;;5020317;28;20232;-85
2023/06/22 08:41:39;;;;;;;5.25;3.70;;;21.30;99.90;;;;;;5016011;28;20674;-85
2023/06/22 08:44:06;;;;;;;11.02;4.75;;;21.40;99.90;;;;;;5015095;28;20682;-86
2023/06/22 08:46:33;;;;;;;6.43;5.15;;;21.40;99.90;;;;;;5005855;28;20206;-86
2023/06/22 08:49:00;;;;;;;4.95;4.25;;;21.50;99.90;;;;;;4994354;28;20207;-86
2023/06/22 08:51:28;;;;;;;7.20;4.57;;;21.60;99.90;;;;;;4991553;28;20210;-86
2023/06/22 08:53:55;;;;;;;5.97;4.47;;;21.50;99.90;;;;;;5012654;28;20208;-85
2023/06/22 08:56:24;;;;;;;6.65;4.75;;;21.60;99.90;;;;;;5002050;28;20790;-87
2023/06/22 08:58:51;;;;;;;7.72;5.10;;;21.60;99.90;;;;;;5016523;28;20262;-84
2023/06/22 09:01:18;;;;;;;9.38;5.80;;;21.70;99.90;;;;;;5006010;28;20565;-86
2023/06/22 09:03:53;;;;;;;7.15;5.47;;;21.70;99.90;;;;;;5022159;28;20213;-87
2023/06/22 09:06:20;;;;;;;7.90;4.28;;;21.80;99.90;;;;;;4992524;28;20214;-85
2023/06/22 09:08:47;;;;;;;7.13;4.90;;;21.80;99.90;;;;;;5017960;28;20203;-85
2023/06/22 09:11:14;;;;;;;5.50;4.95;;;21.90;99.90;;;;;;5003911;28;20205;-86
2023/06/22 09:13:43;;;;;;;6.05;5.45;;;21.90;99.90;;;;;;5020188;28;20206;-86
2023/06/22 09:16:11;;;;;;;7.70;5.65;;;22.00;99.90;;;;;;5005667;28;20212;-87
2023/06/22 09:18:38;;;;;;;6.72;5.30;;;22.00;99.90;;;;;;5019042;28;20253;-86
2023/06/22 09:21:05;;;;;;;6.82;5.03;;;22.10;99.90;;;;;;4997507;28;20565;-86
2023/06/22 09:23:32;;;;;;;8.23;6.95;;;22.20;99.90;;;;;;5010040;28;20771;-87
2023/06/22 09:25:59;;;;;;;8.73;5.57;;;22.20;99.90;;;;;;5008178;28;20816;-87
2023/06/22 09:28:25;;;;;;;6.80;4.50;;;22.20;99.90;;;;;;5016770;28;20513;-85
2023/06/22 09:30:58;;;;;;;7.05;5.15;;;22.30;99.90;;;;;;5013466;28;20202;-85
2023/06/22 09:33:25;;;;;;;6.20;4.32;;;22.30;99.90;;;;;;5002344;28;20330;-86
2023/06/22 09:35:52;;;;;;;7.90;5.80;;;22.40;99.90;;;;;;5017349;28;20233;-84
2023/06/22 09:38:19;;;;;;;7.03;5.40;;;22.50;99.90;;;;;;5002132;28;20768;-85
2023/06/22 09:40:46;;;;;;;7.85;5.07;;;22.50;99.90;;;;;;5008618;28;20213;-85
2023/06/22 09:43:13;;;;;;;5.72;4.20;;;22.60;99.90;;;;;;5016771;28;20220;-84
2023/06/22 09:45:40;;;;;;;4.75;3.50;;;22.60;99.90;;;;;;5021493;28;20963;-84
2023/06/22 09:48:09;;;;;;;5.53;3.97;;;22.60;99.90;;;;;;5008340;28;20217;-86
2023/06/22 09:50:37;;;;;;;4.03;3.53;;;22.60;99.90;;;;;;5017046;28;20673;-85
2023/06/22 09:53:03;;;;;;;5.45;4.40;;;22.30;99.90;;;;;;4996104;28;20848;-86
2023/06/22 09:55:30;;;;;;;6.13;4.03;;;22.60;99.90;;;;;;5017527;28;20202;-86
2023/06/22 09:57:57;;;;;;;3.92;2.90;;;22.70;99.90;;;;;;5011206;28;20301;-86
2023/06/22 10:00:24;;;;;;;4.15;2.95;;;23.10;99.90;;;;;;5020365;28;20351;-85
2023/06/22 10:02:51;;;;;;;3.53;3.13;;;22.80;99.90;;;;;;5009382;28;20206;-86
2023/06/22 10:05:19;;;;;;;5.07;3.33;;;23.20;99.90;;;;;;5015010;28;20209;-87
2023/06/22 10:07:46;;;;;;;6.00;3.42;;;23.20;99.90;;;;;;4999448;28;20218;-85
2023/06/22 10:10:14;;;;;;;3.50;2.72;;;23.30;99.90;;;;;;5013422;28;20198;-87
2023/06/22 10:12:47;;;;;;;4.07;3.08;;;23.30;99.90;;;;;;5009805;28;20300;-86
2023/06/22 10:15:14;;;;;;;4.25;3.05;;;23.20;99.90;;;;;;5020781;28;20186;-85
2023/06/22 10:17:41;;;;;;;5.13;3.50;;;;;;;;;;5018564;28;20204;-85
2023/06/22 10:20:12;;;;;;;5.22;3.92;;;23.30;99.90;;;;;;5009426;28;20218;-86
2023/06/22 10:22:41;;;;;;;3.70;3.22;;;23.30;99.90;;;;;;4997667;28;20214;-85
2023/06/22 10:25:09;;;;;;;3.60;2.97;;;23.40;99.90;;;;;;5002376;28;20230;-86
2023/06/22 10:27:36;;;;;;;5.57;3.47;;;23.60;99.90;;;;;;5013507;28;20210;-86
2023/06/22 10:30:05;;;;;;;6.75;3.10;;;23.60;99.90;;;;;;5010089;28;20206;-86
2023/06/22 10:32:31;;;;;;;4.20;2.97;;;23.80;99.90;;;;;;5011694;28;20202;-86
2023/06/22 10:34:59;;;;;;;3.95;3.20;;;23.80;99.90;;;;;;5023454;28;20305;-84
2023/06/22 10:37:26;;;;;;;5.28;3.35;;;;;;;;;;5002756;28;20253;-85
2023/06/22 10:39:55;;;;;;;6.03;3.60;;;23.70;99.90;;;;;;5014114;28;20228;-85
2023/06/22 10:42:21;;;;;;;3.78;3.15;;;23.70;99.90;;;;;;5016442;28;20198;-87
2023/06/22 10:44:48;;;;;;;7.20;4.00;;;23.80;99.90;;;;;;4997372;28;21154;-86
2023/06/22 10:47:15;;;;;;;4.25;3.55;;;23.80;99.90;;;;;;5018633;28;20206;-87
2023/06/22 10:49:42;;;;;;;5.88;3.70;;;23.90;99.90;;;;;;5005159;28;20647;-86
2023/06/22 10:52:10;;;;;;;6.35;3.67;;;24.00;99.90;;;;;;5016286;28;21254;-86
2023/06/22 10:54:37;;;;;;;5.28;4.03;;;24.10;99.90;;;;;;4995047;28;20221;-84
2023/06/22 10:57:06;;;;;;;7.13;4.00;;;24.10;99.90;;;;;;5018331;28;20709;-86
2023/06/22 10:59:33;;;;;;;6.82;3.90;;;24.10;99.90;;;;;;5001900;28;20224;-86
2023/06/22 11:02:00;;;;;;;4.70;3.72;;;24.10;99.90;;;;;;5004582;28;20216;-85
2023/06/22 11:04:27;;;;;;;4.43;4.03;;;24.20;99.90;;;;;;5015747;28;20207;-87
2023/06/22 11:06:53;;;;;;;6.13;4.00;;;24.20;99.90;;;;;;5007080;28;20202;-86
2023/06/22 11:09:21;;;;;;;8.10;3.83;;;24.20;99.90;;;;;;4992717;28;20207;-85
2023/06/22 11:11:48;;;;;;;4.68;3.60;;;24.20;99.90;;;;;;5012342;28;21063;-86
2023/06/22 11:14:16;;;;;;;5.43;3.70;;;24.20;99.90;;;;;;5015610;28;20198;-86
2023/06/22 11:16:43;;;;;;;4.07;3.63;;;24.10;99.90;;;;;;4993118;28;20765;-86
2023/06/22 11:19:09;;;;;;;5.32;3.90;;;24.10;99.90;;;;;;5014652;28;20217;-86
2023/06/22 11:21:37;;;;;;;4.35;3.72;;;24.20;99.90;;;;;;5003441;28;20210;-87
2023/06/22 11:24:03;;;;;;;6.20;4.10;;;24.20;99.90;;;;;;4997222;28;20212;-86
2023/06/22 11:26:31;;;;;;;6.18;4.32;;;24.20;99.90;;;;;;5013747;28;20578;-85
2023/06/22 11:28:59;;;;;;;5.60;4.68;;;24.30;99.90;;;;;;5012221;28;20293;-86
2023/06/22 11:31:27;;;;;;;6.07;4.80;;;24.40;99.90;;;;;;5009558;28;20775;-86
2023/06/22 11:33:54;;;;;;;5.63;4.70;;;24.40;99.90;;;;;;5003570;28;20210;-86
2023/06/22 11:36:21;;;;;;;6.60;5.15;;;24.50;99.90;;;;;;5005784;28;20317;-86
2023/06/22 11:38:48;;;;;;;6.55;4.40;;;24.60;99.90;;;;;;5012327;28;20217;-86
2023/06/22 11:41:14;;;;;;;7.95;4.25;;;24.60;99.90;;;;;;4987495;28;20226;-86
2023/06/22 11:43:41;;;;;;;6.72;4.50;;;24.60;99.90;;;;;;5010801;28;20222;-85
2023/06/22 11:46:09;;;;;;;6.07;4.53;;;24.60;99.90;;;;;;4985076;28;20202;-85
2023/06/22 11:48:37;;;;;;;5.32;4.28;;;24.60;99.90;;;;;;4996868;28;20199;-86
2023/06/22 11:51:06;;;;;;;6.28;4.22;;;24.50;99.90;;;;;;5011005;28;20202;-85
2023/06/22 11:53:34;;;;;;;4.70;4.18;;;;;;;;;;5010351;28;20296;-85
2023/06/22 11:56:01;;;;;;;4.93;4.43;;;24.50;99.90;;;;;;4990602;28;20210;-87
2023/06/22 11:58:28;;;;;;;5.53;4.65;;;24.50;99.90;;;;;;5010182;28;20667;-85
2023/06/22 12:00:55;;;;;;;4.88;4.20;;;24.60;99.90;;;;;;5002710;28;20214;-86
2023/06/22 12:03:22;;;;;;;6.13;4.72;;;24.70;99.90;;;;;;5014751;28;20309;-87
2023/06/22 12:05:51;;;;;;;6.97;5.03;;;24.80;99.90;;;;;;4999714;28;20237;-86
2023/06/22 12:08:18;;;;;;;5.55;4.50;;;24.80;99.90;;;;;;4997735;28;20209;-87
2023/06/22 12:10:45;;;;;;;6.28;4.25;;;24.70;99.90;;;;;;4991703;28;20778;-84
2023/06/22 12:13:12;;;;;;;6.20;4.57;;;24.70;99.90;;;;;;4996527;28;20227;-85
2023/06/22 12:15:39;;;;;;;7.05;4.50;;;24.70;99.90;;;;;;5010625;28;20226;-86
2023/06/22 12:18:06;;;;;;;6.88;4.00;;;24.70;99.90;;;;;;5010199;28;20567;-85
2023/06/22 12:20:33;;;;;;;6.35;4.72;;;24.70;99.90;;;;;;5016249;28;20237;-87
2023/06/22 12:23:01;;;;;;;5.90;4.32;;;24.70;99.90;;;;;;5001623;28;20680;-85
2023/06/22 12:25:28;;;;;;;6.30;4.78;;;24.70;99.90;;;;;;5011730;28;20207;-86
2023/06/22 12:27:55;;;;;;;6.25;4.32;;;24.70;99.90;;;;;;4996022;28;20205;-87
2023/06/22 12:30:22;;;;;;;5.93;5.32;;;24.60;99.90;;;;;;5014933;28;20676;-86
2023/06/22 12:32:49;;;;;;;5.32;4.82;;;24.70;99.90;;;;;;5001861;28;20280;-85
2023/06/22 12:35:16;;;;;;;6.55;4.65;;;24.70;99.90;;;;;;5004856;28;20237;-84
2023/06/22 12:37:43;;;;;;;9.00;4.57;;;24.60;99.90;;;;;;5012992;28;20814;-87
2023/06/22 12:40:12;;;;;;;6.65;4.93;;;24.70;99.90;;;;;;5003636;28;20226;-86